Time;durP1;ratioP1;P1;durP2;ratioP2;P2;SDS_P1;SDS_P2;PMS_P1;PMS_P2;Temp;Humidity;BMP_temperature;BMP_pressure;BME280_temperature;BME280_humidity;BME280_pressure;Samples;Min_cycle;Max_cycle;Signal;HPM_P1;HPM_P2
2023/11/01 00:00:34;;;;;;;9.70;4.90;;;;;;;16.39;67.33;99628.77;105751;1253;64233;-56
2023/11/01 00:03:01;;;;;;;9.90;4.90;;;;;;;16.41;67.39;99627.36;107588;1255;60470;-53
2023/11/01 00:05:29;;;;;;;13.10;5.50;;;;;;;16.42;67.54;99625.13;105700;1253;60321;-54
2023/11/01 00:07:57;;;;;;;9.40;5.80;;;;;;;16.44;67.51;99628.77;106522;1253;71849;-53
2023/11/01 00:10:24;;;;;;;11.10;5.50;;;;;;;16.43;67.65;99629.73;105876;1253;60554;-54
2023/11/01 00:12:52;;;;;;;11.50;5.40;;;;;;;16.42;67.78;99625.86;105982;1256;62515;-54
2023/11/01 00:15:19;;;;;;;9.20;4.90;;;;;;;16.41;67.86;99622.08;105397;1254;60519;-54
2023/11/01 00:17:47;;;;;;;10.30;4.90;;;;;;;16.41;67.68;99623.84;105966;1254;60551;-54
2023/11/01 00:20:14;;;;;;;12.00;5.80;;;;;;;16.42;67.64;99620.55;105578;1253;64948;-54
2023/11/01 00:22:42;;;;;;;11.90;5.00;;;;;;;16.42;67.64;99623.47;105694;1257;62920;-54
2023/11/01 00:25:10;;;;;;;12.00;5.60;;;;;;;16.45;67.77;99618.96;105185;1258;64133;-54
2023/11/01 00:27:37;;;;;;;12.60;5.50;;;;;;;16.46;67.67;99615.93;106130;1254;60439;-53
2023/11/01 00:30:06;;;;;;;16.90;6.20;;;;;;;16.45;67.41;99609.03;106694;1258;59410;-53
2023/11/01 00:32:33;;;;;;;10.40;5.50;;;;;;;16.41;67.59;99606.23;106367;1253;64924;-55
2023/11/01 00:35:02;;;;;;;11.40;5.20;;;;;;;16.41;67.42;99605.18;105827;1258;62417;-55
2023/11/01 00:37:30;;;;;;;14.10;5.50;;;;;;;16.40;67.36;99603.73;106572;1253;62458;-58
2023/11/01 00:39:57;;;;;;;11.00;4.90;;;;;;;16.42;67.39;99604.91;104721;1254;3287220;-54
2023/11/01 00:44:25;;;;;;;11.70;5.20;;;;;;;16.22;68.15;99606.70;102832;1294;601071;-56
2023/11/01 00:46:53;;;;;;;11.40;6.50;;;;;;;16.44;67.28;99604.84;104912;1265;59266;-53
2023/11/01 00:49:21;;;;;;;14.30;6.60;;;;;;;16.42;67.23;99603.81;104740;1269;59054;-55
2023/11/01 00:51:49;;;;;;;15.40;6.00;;;;;;;16.38;67.08;99602.96;104750;1265;62207;-53
2023/11/01 00:54:17;;;;;;;10.80;5.00;;;;;;;16.36;67.06;99599.95;104757;1267;61582;-55
2023/11/01 00:56:44;;;;;;;12.90;5.40;;;;;;;16.36;67.04;99594.45;105763;1259;63737;-54
2023/11/01 00:59:12;;;;;;;10.20;4.80;;;;;;;16.35;66.89;99587.11;103059;1254;3185705;-54
2023/11/01 01:01:39;;;;;;;10.10;6.10;;;;;;;16.34;66.99;99585.14;105121;1259;59299;-54
2023/11/01 01:04:07;;;;;;;11.70;5.80;;;;;;;16.32;67.21;99586.41;106278;1257;63406;-57
2023/11/01 01:06:35;;;;;;;12.20;5.40;;;;;;;16.31;67.32;99586.23;105642;1260;60534;-55
2023/11/01 01:09:03;;;;;;;9.80;5.20;;;;;;;16.29;67.27;99585.25;105200;1254;62462;-54
2023/11/01 01:11:31;;;;;;;10.50;5.10;;;;;;;16.28;67.30;99584.89;106656;1254;59621;-55
2023/11/01 01:13:59;;;;;;;16.80;5.60;;;;;;;16.31;67.26;99585.67;105685;1260;61155;-54
2023/11/01 01:16:27;;;;;;;12.50;5.40;;;;;;;16.33;67.26;99584.85;105180;1257;62837;-54
2023/11/01 01:18:55;;;;;;;12.20;5.30;;;;;;;16.38;67.23;99581.02;105595;1254;61327;-55
2023/11/01 01:21:22;;;;;;;10.20;5.40;;;;;;;16.40;67.15;99585.55;105925;1257;63676;-56
2023/11/01 01:23:50;;;;;;;14.20;5.50;;;;;;;16.42;67.29;99590.56;105678;1256;59877;-54
2023/11/01 01:26:17;;;;;;;11.30;5.70;;;;;;;16.43;67.27;99594.17;105156;1254;59697;-52
2023/11/01 01:28:45;;;;;;;10.00;4.60;;;;;;;16.48;67.20;99593.64;105242;1254;62822;-54
2023/11/01 01:31:12;;;;;;;10.00;5.10;;;;;;;16.53;67.23;99598.49;105942;1254;61458;-54
2023/11/01 01:33:44;;;;;;;13.10;5.10;;;;;;;16.60;67.20;99597.04;105135;1257;63660;-53
2023/11/01 01:36:12;;;;;;;9.60;5.60;;;;;;;16.66;67.19;99599.84;105402;1254;59653;-54
2023/11/01 01:38:39;;;;;;;11.60;6.20;;;;;;;16.69;67.08;99601.52;105238;1255;59692;-55
2023/11/01 01:41:07;;;;;;;12.50;6.40;;;;;;;16.72;67.18;99602.83;105258;1260;64784;-54
2023/11/01 01:43:35;;;;;;;10.60;5.60;;;;;;;16.76;67.17;99613.91;105589;1254;61383;-55
2023/11/01 01:46:09;;;;;;;12.60;6.20;;;;;;;16.78;66.97;99622.08;105261;1258;63753;-54
2023/11/01 01:48:37;;;;;;;13.30;6.30;;;;;;;16.78;66.81;99622.25;105220;1258;59791;-55
2023/11/01 01:51:05;;;;;;;13.40;6.20;;;;;;;16.78;66.92;99618.40;105471;1260;59743;-54
2023/11/01 01:53:33;;;;;;;11.40;6.50;;;;;;;16.81;67.00;99618.46;106628;1257;62901;-54
2023/11/01 01:56:00;;;;;;;15.60;6.60;;;;;;;16.82;67.05;99612.83;106574;1260;60102;-59
2023/11/01 01:58:30;;;;;;;14.50;6.70;;;;;;;16.83;67.23;99614.64;105648;1259;62427;-55
2023/11/01 02:00:58;;;;;;;12.70;6.20;;;;;;;16.83;67.31;99612.80;105618;1262;59685;-56
2023/11/01 02:03:26;;;;;;;9.60;5.20;;;;;;;16.85;67.19;99611.24;105843;1260;59548;-53
2023/11/01 02:05:54;;;;;;;12.90;5.70;;;;;;;16.88;67.17;99609.84;105183;1258;64142;-50
2023/11/01 02:08:22;;;;;;;9.60;5.20;;;;;;;16.91;67.16;99605.67;105289;1260;60177;-51
2023/11/01 02:10:49;;;;;;;11.20;6.10;;;;;;;16.94;67.06;99600.92;105850;1257;62494;-53
2023/11/01 02:13:17;;;;;;;10.90;6.30;;;;;;;16.96;67.10;99595.35;105535;1255;59774;-54
2023/11/01 02:15:47;;;;;;;14.20;6.50;;;;;;;16.96;67.12;99586.44;105366;1257;59663;-54
2023/11/01 02:18:15;;;;;;;16.70;6.80;;;;;;;16.92;67.03;99584.38;105274;1256;64236;-55
2023/11/01 02:20:45;;;;;;;11.80;6.00;;;;;;;16.91;67.23;99584.50;105453;1260;60485;-55
2023/11/01 02:23:14;;;;;;;11.00;6.10;;;;;;;16.92;67.22;99585.45;105197;1263;62719;-54
2023/11/01 02:25:43;;;;;;;10.70;5.90;;;;;;;16.93;67.06;99589.79;105464;1257;59732;-54
2023/11/01 02:28:11;;;;;;;16.10;7.70;;;;;;;16.93;67.20;99585.70;105242;1260;60880;-56
2023/11/01 02:30:39;;;;;;;11.70;6.80;;;;;;;16.93;67.27;99592.98;105832;1257;64042;-54
2023/11/01 02:33:07;;;;;;;11.30;6.50;;;;;;;16.91;67.35;99588.50;106226;1257;60110;-55
2023/11/01 02:35:35;;;;;;;14.90;6.40;;;;;;;16.90;67.29;99584.77;105567;1258;62621;-54
2023/11/01 02:38:04;;;;;;;12.30;6.10;;;;;;;16.91;67.31;99587.27;105886;1257;59761;-54
2023/11/01 02:40:32;;;;;;;10.80;5.60;;;;;;;16.94;67.25;99581.11;106287;1255;59749;-56
2023/11/01 02:42:59;;;;;;;11.80;7.00;;;;;;;16.96;67.17;99575.61;105137;1260;64506;-55
2023/11/01 02:45:27;;;;;;;12.50;6.30;;;;;;;16.98;67.09;99573.39;105739;1256;61494;-54
2023/11/01 02:47:54;;;;;;;13.10;7.70;;;;;;;16.99;67.10;99572.00;105754;1257;63736;-54
2023/11/01 02:50:22;;;;;;;11.60;6.30;;;;;;;16.98;67.13;99570.92;105504;1257;61266;-56
2023/11/01 02:52:50;;;;;;;16.60;7.00;;;;;;;16.96;67.13;99573.77;105186;1255;59735;-54
2023/11/01 02:55:18;;;;;;;13.30;6.70;;;;;;;16.97;67.14;99568.02;106479;1260;64564;-56
2023/11/01 02:57:45;;;;;;;14.10;7.00;;;;;;;17.00;67.08;99564.46;105547;1257;61435;-56
2023/11/01 03:00:19;;;;;;;17.40;6.40;;;;;;;17.03;67.02;99561.14;105581;1257;63948;-54
2023/11/01 03:02:48;;;;;;;13.30;7.80;;;;;;;17.05;66.96;99551.05;105783;1258;59768;-55
2023/11/01 03:05:16;;;;;;;15.10;8.10;;;;;;;17.06;67.03;99544.89;106277;1257;59768;-55
2023/11/01 03:07:44;;;;;;;14.00;7.80;;;;;;;17.05;66.94;99543.85;105991;1256;64144;-58
2023/11/01 03:10:11;;;;;;;14.80;7.60;;;;;;;17.01;66.99;99542.52;105739;1258;61344;-54
2023/11/01 03:12:40;;;;;;;14.20;7.90;;;;;;;17.01;66.89;99540.88;105611;1257;62529;-56
2023/11/01 03:15:08;;;;;;;15.60;6.90;;;;;;;17.03;66.88;99527.77;106436;1257;59557;-56
2023/11/01 03:17:36;;;;;;;11.30;6.50;;;;;;;17.05;66.97;99529.42;106454;1257;60131;-56
2023/11/01 03:20:05;;;;;;;16.10;7.90;;;;;;;17.08;66.88;99530.42;105206;1257;64058;-55
2023/11/01 03:22:33;;;;;;;15.80;7.90;;;;;;;17.08;66.96;99519.91;105769;1260;60170;-54
2023/11/01 03:25:01;;;;;;;14.90;7.40;;;;;;;17.08;67.00;99524.81;106252;1257;64240;-56
2023/11/01 03:27:29;;;;;;;16.80;8.90;;;;;;;17.08;66.97;99523.27;106607;1256;59377;-55
2023/11/01 03:29:56;;;;;;;13.40;7.80;;;;;;;17.10;66.88;99522.02;106031;1257;59742;-56
2023/11/01 03:32:24;;;;;;;17.00;7.30;;;;;;;17.12;66.79;99524.29;105153;1255;62820;-54
2023/11/01 03:34:52;;;;;;;11.00;7.20;;;;;;;17.13;66.84;99524.17;105181;1258;61405;-56
2023/11/01 03:37:20;;;;;;;15.40;8.20;;;;;;;17.16;66.84;99527.61;105252;1258;64268;-55
2023/11/01 03:39:47;;;;;;;16.50;8.80;;;;;;;17.19;66.88;99526.19;106155;1257;59604;-55
2023/11/01 03:42:15;;;;;;;18.60;8.70;;;;;;;17.18;66.82;99523.83;105055;1257;59650;-54
2023/11/01 03:44:42;;;;;;;14.60;8.80;;;;;;;17.19;66.79;99525.02;105898;1254;64660;-57
2023/11/01 03:47:10;;;;;;;10.60;7.00;;;;;;;17.18;66.65;99525.39;105428;1258;61359;-54
2023/11/01 03:49:37;;;;;;;13.80;7.70;;;;;;;17.18;66.50;99523.50;105215;1257;63768;-55
2023/11/01 03:52:06;;;;;;;13.80;7.30;;;;;;;17.15;66.50;99522.31;105254;1260;59777;-54
2023/11/01 03:54:33;;;;;;;19.30;8.40;;;;;;;17.14;66.64;99519.41;105663;1257;59646;-54
2023/11/01 03:57:02;;;;;;;12.90;8.00;;;;;;;17.11;66.61;99519.88;105187;1257;62807;-61
2023/11/01 03:59:30;;;;;;;14.50;8.80;;;;;;;17.05;66.62;99521.27;106966;1257;61997;-57
2023/11/01 04:01:58;;;;;;;12.10;8.50;;;;;;;16.98;66.68;99517.61;105175;1257;63718;-55
2023/11/01 04:04:27;;;;;;;16.00;7.50;;;;;;;16.95;66.81;99522.90;106057;1260;59758;-57
2023/11/01 04:06:54;;;;;;;14.10;7.20;;;;;;;16.94;66.83;99523.41;106393;1257;59807;-56
2023/11/01 04:09:22;;;;;;;14.10;7.60;;;;;;;16.93;66.86;99522.59;105556;1257;62854;-55
2023/11/01 04:11:49;;;;;;;15.90;8.70;;;;;;;16.94;66.91;99516.90;105178;1255;61430;-56
2023/11/01 04:14:17;;;;;;;17.10;8.80;;;;;;;16.92;67.10;99514.60;105171;1257;64166;-56
2023/11/01 04:16:44;;;;;;;14.50;8.40;;;;;;;16.91;67.20;99515.41;105236;1258;60334;-55
2023/11/01 04:19:12;;;;;;;14.40;8.40;;;;;;;16.87;67.29;99514.92;105789;1260;59638;-55
2023/11/01 04:21:40;;;;;;;14.00;8.20;;;;;;;16.86;67.17;99515.06;105422;1257;62926;-55
2023/11/01 04:24:09;;;;;;;12.60;7.40;;;;;;;16.86;67.19;99514.52;105169;1260;60246;-57
2023/11/01 04:26:37;;;;;;;13.30;7.70;;;;;;;16.87;67.33;99513.44;106731;1259;70462;-55
2023/11/01 04:29:05;;;;;;;16.20;8.10;;;;;;;16.88;67.40;99510.67;105622;1260;59745;-56
2023/11/01 04:31:33;;;;;;;13.50;8.30;;;;;;;16.88;67.45;99507.81;105154;1260;59653;-57
2023/11/01 04:34:00;;;;;;;14.70;9.10;;;;;;;16.85;67.41;99504.61;105887;1260;64112;-57
2023/11/01 04:36:28;;;;;;;13.20;8.20;;;;;;;16.80;67.46;99503.35;104980;1257;61935;-57
2023/11/01 04:38:57;;;;;;;15.00;7.60;;;;;;;16.80;67.58;99510.46;106311;1256;62447;-56
2023/11/01 04:41:27;;;;;;;12.10;6.80;;;;;;;16.82;67.48;99511.14;107016;1258;59667;-56
2023/11/01 04:43:55;;;;;;;15.80;8.00;;;;;;;16.84;67.46;99509.63;105159;1261;59666;-56
2023/11/01 04:46:23;;;;;;;17.20;9.20;;;;;;;16.86;67.50;99512.11;105136;1263;64115;-56
2023/11/01 04:48:51;;;;;;;13.70;9.10;;;;;;;16.85;67.43;99515.33;105226;1256;61531;-57
2023/11/01 04:51:18;;;;;;;14.70;9.30;;;;;;;16.84;67.34;99514.57;106596;1256;64437;-58
2023/11/01 04:53:46;;;;;;;14.50;8.50;;;;;;;16.81;67.33;99511.11;105347;1260;60555;-56
2023/11/01 04:56:14;;;;;;;20.50;9.10;;;;;;;16.79;67.34;99510.40;106079;1257;59131;-56
2023/11/01 04:58:41;;;;;;;13.60;8.70;;;;;;;16.79;67.27;99517.02;105302;1257;63683;-57
2023/11/01 05:01:09;;;;;;;16.60;8.50;;;;;;;16.76;67.18;99523.93;105095;1257;61540;-57
2023/11/01 05:03:37;;;;;;;17.80;7.80;;;;;;;16.72;67.30;99525.46;105954;1257;62470;-56
2023/11/01 05:06:05;;;;;;;15.80;8.70;;;;;;;16.69;67.34;99528.58;105672;1257;60914;-55
2023/11/01 05:08:34;;;;;;;15.50;8.90;;;;;;;16.67;67.51;99531.13;107076;1262;60558;-56
2023/11/01 05:11:03;;;;;;;49.40;18.90;;;;;;;16.64;67.60;99532.73;107077;1256;64948;-57
2023/11/01 05:13:30;;;;;;;141.80;50.10;;;;;;;16.61;67.61;99538.23;105491;1258;61614;-52
2023/11/01 05:15:58;;;;;;;108.10;39.70;;;;;;;16.61;67.72;99544.24;107303;1256;63952;-55
2023/11/01 05:18:27;;;;;;;53.70;22.10;;;;;;;16.65;67.83;99546.99;106717;1258;60555;-57
2023/11/01 05:20:55;;;;;;;37.20;17.40;;;;;;;16.70;67.78;99552.09;105134;1258;60835;-57
2023/11/01 05:23:23;;;;;;;25.80;13.80;;;;;;;16.75;67.59;99554.65;104705;1266;65878;-54
2023/11/01 05:25:50;;;;;;;28.30;14.20;;;;;;;16.78;67.50;99555.38;105117;1257;61602;-55
2023/11/01 05:28:18;;;;;;;20.00;10.90;;;;;;;16.80;67.43;99552.46;106774;1258;62421;-57
2023/11/01 05:30:46;;;;;;;31.50;14.60;;;;;;;16.82;67.35;99555.56;106838;1259;60487;-55
2023/11/01 05:33:14;;;;;;;46.80;19.40;;;;;;;16.89;67.22;99555.55;104968;1259;60450;-56
2023/11/01 05:35:43;;;;;;;33.30;14.80;;;;;;;16.96;67.09;99560.15;105109;1260;63758;-55
2023/11/01 05:38:11;;;;;;;25.00;12.80;;;;;;;17.00;66.82;99561.60;105631;1258;61564;-55
2023/11/01 05:40:39;;;;;;;33.90;14.70;;;;;;;17.03;66.63;99567.11;105543;1257;63872;-55
2023/11/01 05:43:07;;;;;;;32.60;15.40;;;;;;;17.04;66.59;99566.83;108872;1256;60651;-55
2023/11/01 05:45:34;;;;;;;26.70;13.70;;;;;;;17.04;66.61;99567.37;105105;1257;60443;-56
2023/11/01 05:48:07;;;;;;;22.20;10.60;;;;;;;17.05;66.54;99566.83;106407;1258;64898;-52
2023/11/01 05:50:36;;;;;;;19.20;10.50;;;;;;;17.11;66.45;99566.61;108952;1256;60106;-56
2023/11/01 05:53:08;;;;;;;18.30;10.80;;;;;;;17.21;66.23;99566.02;108979;1256;63695;-54
2023/11/01 05:55:37;;;;;;;21.80;13.10;;;;;;;17.30;66.00;99565.81;109004;1256;58439;-54
2023/11/01 05:58:25;;;;;;;15.90;10.00;;;;;;;17.38;65.73;99565.44;109036;1257;58447;-51
2023/11/01 06:00:53;;;;;;;15.80;9.60;;;;;;;17.42;65.60;99567.34;107597;1257;63634;-54
2023/11/01 06:03:20;;;;;;;15.80;10.40;;;;;;;17.45;65.41;99567.48;105261;1255;61297;-53
2023/11/01 06:05:48;;;;;;;18.00;10.30;;;;;;;17.52;65.25;99565.48;105113;1260;63683;-55
2023/11/01 06:08:16;;;;;;;18.60;9.40;;;;;;;17.59;64.95;99568.95;105044;1257;60456;-48
2023/11/01 06:10:44;;;;;;;16.70;9.50;;;;;;;17.65;64.73;99571.10;106096;1257;60523;-50
2023/11/01 06:13:11;;;;;;;15.30;10.00;;;;;;;17.69;64.49;99570.69;105071;1260;65429;-53
2023/11/01 06:15:39;;;;;;;15.50;10.20;;;;;;;17.69;64.38;99566.23;108543;1257;61872;-55
2023/11/01 06:18:07;;;;;;;17.50;9.90;;;;;;;17.68;64.22;99565.25;108967;1256;62482;-52
2023/11/01 06:20:35;;;;;;;16.40;9.80;;;;;;;17.71;64.08;99568.26;108209;1257;58425;-52
2023/11/01 06:23:08;;;;;;;14.60;10.10;;;;;;;17.77;63.88;99568.73;107151;1258;60549;-50
2023/11/01 06:25:37;;;;;;;15.90;9.60;;;;;;;17.86;63.66;99567.92;108797;1257;72445;-51
2023/11/01 06:28:04;;;;;;;19.00;10.70;;;;;;;17.91;63.58;99560.26;106345;1257;61545;-50
2023/11/01 06:30:32;;;;;;;18.80;9.70;;;;;;;17.98;63.55;99554.80;105197;1261;62490;-56
2023/11/01 06:33:01;;;;;;;20.40;10.10;;;;;;;18.03;63.33;99554.23;105677;1260;60558;-55
2023/11/01 06:35:29;;;;;;;19.10;10.00;;;;;;;18.07;63.10;99559.09;106583;1256;60514;-53
2023/11/01 06:37:57;;;;;;;16.00;10.30;;;;;;;18.07;62.88;99560.08;105845;1260;64953;-55
2023/11/01 06:40:24;;;;;;;14.00;9.40;;;;;;;18.08;62.32;99565.13;105907;1258;63321;-55
2023/11/01 06:42:53;;;;;;;13.90;8.50;;;;;;;18.04;62.02;99567.21;106540;1256;63731;-53
2023/11/01 06:45:21;;;;;;;15.60;9.60;;;;;;;18.01;61.99;99562.43;106040;1257;61141;-57
2023/11/01 06:47:49;;;;;;;16.40;9.80;;;;;;;17.99;61.94;99558.45;107858;1251;60457;-58
2023/11/01 06:50:17;;;;;;;12.70;9.70;;;;;;;17.96;62.03;99557.84;107376;1256;64842;-58
2023/11/01 06:52:45;;;;;;;15.20;9.00;;;;;;;17.94;62.04;99564.58;105153;1257;60635;-60
2023/11/01 06:55:13;;;;;;;14.00;9.00;;;;;;;17.90;62.03;99572.52;106433;1254;63797;-56
2023/11/01 06:57:41;;;;;;;10.80;8.50;;;;;;;17.90;62.10;99575.88;105332;1257;60555;-57
2023/11/01 07:00:09;;;;;;;13.60;8.80;;;;;;;17.93;61.98;99580.86;106322;1257;60315;-56
2023/11/01 07:02:37;;;;;;;16.20;9.60;;;;;;;17.93;62.07;99582.91;106649;1254;64954;-57
2023/11/01 07:05:05;;;;;;;14.70;9.80;;;;;;;17.93;62.20;99586.73;105865;1255;62668;-55
2023/11/01 07:07:33;;;;;;;15.80;10.10;;;;;;;17.89;62.14;99588.58;107173;1256;62482;-55
2023/11/01 07:10:01;;;;;;;15.90;9.90;;;;;;;17.85;62.21;99589.84;105895;1253;63807;-56
2023/11/01 07:12:28;;;;;;;15.60;9.10;;;;;;;17.85;62.27;99588.30;105860;1251;60440;-55
2023/11/01 07:14:56;;;;;;;14.70;9.50;;;;;;;17.87;62.22;99587.92;105498;1251;65421;-53
2023/11/01 07:17:27;;;;;;;13.30;9.00;;;;;;;17.88;62.29;99580.44;105416;1256;61830;-57
2023/11/01 07:19:56;;;;;;;21.70;10.30;;;;;;;17.88;62.21;99571.86;106475;1256;64090;-54
2023/11/01 07:22:23;;;;;;;15.90;9.90;;;;;;;17.87;62.17;99569.87;105304;1251;60460;-51
2023/11/01 07:24:51;;;;;;;15.80;10.00;;;;;;;17.81;62.15;99567.17;106746;1256;60463;-54
2023/11/01 07:27:19;;;;;;;15.90;10.50;;;;;;;17.78;62.34;99570.59;105243;1257;63774;-59
2023/11/01 07:29:47;;;;;;;15.80;9.10;;;;;;;17.82;62.32;99576.44;106113;1258;62819;-59
2023/11/01 07:32:15;;;;;;;13.70;9.30;;;;;;;17.90;62.36;99576.08;105284;1257;63860;-59
2023/11/01 07:34:42;;;;;;;18.70;9.90;;;;;;;17.94;62.02;99568.30;105580;1255;60462;-60
2023/11/01 07:37:10;;;;;;;16.40;10.30;;;;;;;17.92;61.67;99558.09;105694;1257;60494;-61
2023/11/01 07:39:37;;;;;;;16.80;10.30;;;;;;;17.88;61.96;99553.02;105447;1256;63714;-59
2023/11/01 07:42:05;;;;;;;18.40;10.20;;;;;;;17.90;62.08;99556.56;105479;1257;61281;-59
2023/11/01 07:44:33;;;;;;;15.70;10.10;;;;;;;17.90;61.97;99556.55;107569;1257;73514;-59
2023/11/01 07:47:01;;;;;;;14.60;9.70;;;;;;;17.95;61.87;99561.60;105407;1257;60441;-58
2023/11/01 07:49:28;;;;;;;11.30;8.70;;;;;;;18.00;61.54;99567.70;105381;1252;60664;-59
2023/11/01 07:51:56;;;;;;;15.80;9.60;;;;;;;18.00;61.41;99568.73;106101;1254;64940;-57
2023/11/01 07:54:24;;;;;;;15.40;9.30;;;;;;;17.99;61.64;99576.27;106030;1256;61623;-59
2023/11/01 07:56:52;;;;;;;13.00;8.80;;;;;;;18.03;61.61;99586.41;107746;1254;66011;-59
2023/11/01 07:59:19;;;;;;;13.60;8.80;;;;;;;18.06;61.66;99586.88;105485;1256;60696;-58
2023/11/01 08:01:47;;;;;;;12.60;9.50;;;;;;;18.09;61.48;99591.41;109308;1251;58588;-59
2023/11/01 08:04:17;;;;;;;13.60;8.20;;;;;;;18.15;61.36;99587.20;109270;1251;63627;-59
2023/11/01 08:06:45;;;;;;;13.70;8.20;;;;;;;18.22;61.10;99588.95;109240;1251;60238;-59
2023/11/01 08:09:15;;;;;;;14.70;8.70;;;;;;;18.30;60.97;99600.36;109287;1253;63840;-55
2023/11/01 08:11:43;;;;;;;14.00;8.80;;;;;;;18.36;60.79;99610.11;109241;1251;58481;-61
2023/11/01 08:14:14;;;;;;;13.60;9.00;;;;;;;18.40;60.47;99618.33;107134;1256;60434;-61
2023/11/01 08:16:47;;;;;;;15.70;9.00;;;;;;;18.40;60.45;99623.17;105115;1258;72598;-60
2023/11/01 08:19:16;;;;;;;14.10;9.70;;;;;;;18.37;60.55;99628.82;108812;1257;72157;-58
2023/11/01 08:21:43;;;;;;;14.80;9.20;;;;;;;18.36;60.51;99636.18;105317;1257;63658;-59
2023/11/01 08:24:11;;;;;;;14.40;8.80;;;;;;;18.38;60.34;99643.03;106168;1256;60537;-62
2023/11/01 08:26:38;;;;;;;16.80;8.90;;;;;;;18.38;60.12;99648.73;105796;1257;60408;-59
2023/11/01 08:29:09;;;;;;;16.30;8.50;;;;;;;18.33;59.99;99651.80;105980;1258;63713;-60
2023/11/01 08:31:37;;;;;;;18.10;10.10;;;;;;;18.27;60.15;99650.60;109025;1251;64029;-55
2023/11/01 08:34:04;;;;;;;14.60;9.50;;;;;;;18.24;60.35;99653.52;105463;1256;64095;-55
2023/11/01 08:36:34;;;;;;;15.40;8.90;;;;;;;18.23;60.44;99652.38;106065;1254;60678;-55
2023/11/01 08:39:02;;;;;;;14.00;9.00;;;;;;;18.26;60.18;99651.08;106022;1257;60473;-54
2023/11/01 08:41:30;;;;;;;13.90;9.10;;;;;;;18.28;60.05;99639.51;105368;1257;64927;-54
2023/11/01 08:43:58;;;;;;;16.10;9.10;;;;;;;18.27;60.04;99639.34;109323;1251;61359;-62
2023/11/01 08:46:25;;;;;;;13.60;8.90;;;;;;;18.24;60.02;99637.91;109219;1251;65971;-63
2023/11/01 08:48:53;;;;;;;16.00;8.80;;;;;;;18.21;60.09;99644.85;109266;1254;60405;-56
2023/11/01 08:51:20;;;;;;;14.00;9.70;;;;;;;18.20;60.00;99654.02;109266;1254;59264;-59
2023/11/01 08:53:47;;;;;;;15.80;9.00;;;;;;;18.16;59.89;99666.72;109294;1251;65909;-57
2023/11/01 08:56:15;;;;;;;12.20;8.40;;;;;;;18.14;59.96;99667.77;109271;1251;61365;-58
2023/11/01 08:58:43;;;;;;;11.40;8.50;;;;;;;18.16;60.06;99672.20;109252;1251;63723;-63
2023/11/01 09:01:12;;;;;;;13.50;8.60;;;;;;;18.22;60.03;99670.14;109314;1254;58643;-59
2023/11/01 09:03:40;;;;;;;13.70;8.70;;;;;;;18.26;59.96;99670.98;109399;1251;58176;-59
2023/11/01 09:06:08;;;;;;;19.10;9.00;;;;;;;18.25;59.70;99675.73;109316;1251;63737;-58
2023/11/01 09:08:35;;;;;;;15.80;8.60;;;;;;;18.20;59.65;99674.42;109334;1251;61499;-55
2023/11/01 09:11:03;;;;;;;14.40;8.60;;;;;;;18.16;59.75;99673.80;107604;1251;74928;-58
2023/11/01 09:13:31;;;;;;;13.40;9.50;;;;;;;18.13;59.82;99669.96;106517;1251;62238;-57
2023/11/01 09:15:59;;;;;;;15.70;8.20;;;;;;;18.10;60.00;99666.25;106914;1257;60355;-59
2023/11/01 09:18:27;;;;;;;13.10;8.80;;;;;;;18.09;60.16;99666.36;105252;1251;65262;-57
2023/11/01 09:20:54;;;;;;;12.20;7.20;;;;;;;18.09;60.34;99672.46;105360;1251;60514;-56
2023/11/01 09:23:23;;;;;;;11.50;7.00;;;;;;;18.04;60.18;99672.83;105867;1256;64487;-59
2023/11/01 09:25:51;;;;;;;11.40;7.20;;;;;;;17.95;60.26;99667.57;105451;1266;60553;-59
2023/11/01 09:28:18;;;;;;;11.10;6.20;;;;;;;17.85;60.62;99660.75;105497;1256;60435;-59
2023/11/01 09:30:46;;;;;;;10.50;6.30;;;;;;;17.77;61.02;99661.52;105233;1254;63787;-60
2023/11/01 09:33:13;;;;;;;12.00;7.10;;;;;;;17.69;61.36;99663.23;105460;1254;61293;-59
2023/11/01 09:35:41;;;;;;;11.00;5.90;;;;;;;17.59;61.74;99660.50;106215;1256;65723;-59
2023/11/01 09:38:09;;;;;;;11.00;6.40;;;;;;;17.49;62.02;99657.45;106235;1256;60420;-61
2023/11/01 09:40:36;;;;;;;8.90;5.60;;;;;;;17.43;62.45;99650.02;107402;1251;60326;-61
2023/11/01 09:43:05;;;;;;;10.00;5.80;;;;;;;17.41;62.87;99645.99;105896;1257;63990;-58
2023/11/01 09:45:33;;;;;;;13.40;5.80;;;;;;;17.41;63.18;99645.09;106136;1257;60503;-58
2023/11/01 09:48:01;;;;;;;10.40;6.20;;;;;;;17.40;63.36;99643.52;106863;1251;62531;-58
2023/11/01 09:50:35;;;;;;;9.20;6.10;;;;;;;17.38;63.54;99641.21;105310;1258;60464;-59
2023/11/01 09:53:02;;;;;;;10.20;5.80;;;;;;;17.35;63.67;99640.32;106236;1257;60309;-59
2023/11/01 09:55:30;;;;;;;12.60;5.80;;;;;;;17.32;63.65;99638.61;106071;1251;76101;-61
2023/11/01 09:57:58;;;;;;;13.50;5.80;;;;;;;17.33;63.71;99639.10;106950;1257;61783;-58
2023/11/01 10:00:25;;;;;;;12.10;6.70;;;;;;;17.34;63.89;99632.53;105801;1256;63658;-59
2023/11/01 10:02:53;;;;;;;14.80;7.70;;;;;;;17.35;63.99;99634.02;106097;1258;59195;-60
2023/11/01 10:05:21;;;;;;;14.20;8.00;;;;;;;17.32;64.10;99636.08;107038;1256;60433;-60
2023/11/01 10:07:48;;;;;;;13.90;7.50;;;;;;;17.26;64.23;99632.52;105544;1251;63704;-59
2023/11/01 10:10:17;;;;;;;11.60;6.90;;;;;;;17.21;64.47;99633.52;105711;1251;73012;-61
2023/11/01 10:12:45;;;;;;;8.90;6.10;;;;;;;17.21;64.67;99631.52;105591;1266;74964;-61
2023/11/01 10:15:20;;;;;;;12.20;6.00;;;;;;;17.24;64.71;99632.91;105558;1254;60586;-61
2023/11/01 10:17:54;;;;;;;9.90;5.60;;;;;;;17.29;64.82;99634.15;106285;1250;60565;-62
2023/11/01 10:20:29;;;;;;;10.40;5.80;;;;;;;17.33;64.93;99632.27;105513;1257;66002;-61
2023/11/01 10:22:57;;;;;;;9.50;5.60;;;;;;;17.36;65.03;99629.09;105471;1251;61437;-63
2023/11/01 10:25:25;;;;;;;9.70;5.50;;;;;;;17.38;65.11;99626.49;105922;1255;64470;-63
2023/11/01 10:27:54;;;;;;;10.10;5.90;;;;;;;17.40;65.20;99624.29;108487;1252;62227;-63
2023/11/01 10:30:21;;;;;;;10.20;5.70;;;;;;;17.38;65.18;99626.66;105585;1251;62548;-59
2023/11/01 10:32:59;;;;;;;9.30;5.30;;;;;;;17.39;65.19;99625.05;106061;1257;64918;-61
2023/11/01 10:35:27;;;;;;;10.40;5.30;;;;;;;17.40;65.17;99624.02;107723;1254;60140;-63
2023/11/01 10:37:59;;;;;;;13.10;5.30;;;;;;;17.39;65.25;99624.62;105362;1256;73708;-63
2023/11/01 10:40:28;;;;;;;10.10;5.30;;;;;;;17.40;65.43;99624.88;106089;1256;60556;-65
2023/11/01 10:42:57;;;;;;;10.40;6.30;;;;;;;17.42;65.68;99627.08;106139;1254;60539;-64
2023/11/01 10:45:25;;;;;;;10.50;6.50;;;;;;;17.49;65.81;99626.83;106877;1254;63872;-63
2023/11/01 10:47:52;;;;;;;9.70;6.10;;;;;;;17.51;65.86;99624.60;105459;1256;60409;-62
2023/11/01 10:50:20;;;;;;;10.70;6.70;;;;;;;17.51;65.79;99623.73;105379;1254;64158;-62
2023/11/01 10:52:48;;;;;;;9.90;5.90;;;;;;;17.52;65.74;99621.70;109231;1251;58619;-65
2023/11/01 10:55:20;;;;;;;10.70;5.60;;;;;;;17.54;65.63;99622.67;105551;1251;60551;-64
2023/11/01 10:57:48;;;;;;;9.30;6.10;;;;;;;17.57;65.58;99626.71;106442;1252;65851;-64
2023/11/01 11:00:19;;;;;;;9.80;6.00;;;;;;;17.57;65.60;99632.04;105566;1257;70961;-64
2023/11/01 11:02:58;;;;;;;10.30;6.90;;;;;;;17.52;65.71;99634.02;105424;1254;63869;-66
2023/11/01 11:05:27;;;;;;;11.00;6.20;;;;;;;17.47;65.77;99636.66;106585;1254;60539;-62
2023/11/01 11:07:56;;;;;;;10.90;6.80;;;;;;;17.45;65.83;99640.36;105361;1257;60363;-64
2023/11/01 11:10:28;;;;;;;11.40;6.30;;;;;;;17.44;65.82;99644.60;105367;1258;65136;-59
2023/11/01 11:13:17;;;;;;;8.10;5.60;;;;;;;17.43;65.96;99648.31;105438;1251;63803;-60
2023/11/01 11:15:48;;;;;;;10.60;6.30;;;;;;;17.41;66.05;99650.59;105222;1256;65862;-61
2023/11/01 11:18:20;;;;;;;9.10;6.20;;;;;;;17.41;66.25;99646.20;105319;1257;60586;-62
2023/11/01 11:20:49;;;;;;;10.00;6.20;;;;;;;17.38;66.11;99647.31;105579;1251;60876;-63
2023/11/01 11:23:17;;;;;;;10.00;6.50;;;;;;;17.38;66.14;99654.36;105384;1253;66914;-60